sensor_id;sensor_type;location;lat;lon;timestamp;temperature;humidity
20735;DHT22;10528;52.124;5.196;2023-06-14T00:00:48;20.40;95.10
20735;DHT22;10528;52.124;5.196;2023-06-14T00:03:15;20.30;95.00
20735;DHT22;10528;52.124;5.196;2023-06-14T00:05:44;20.30;95.00
20735;DHT22;10528;52.124;5.196;2023-06-14T00:08:13;20.30;95.30
20735;DHT22;10528;52.124;5.196;2023-06-14T00:10:42;20.20;94.90
20735;DHT22;10528;52.124;5.196;2023-06-14T00:13:09;20.30;95.30
20735;DHT22;10528;52.124;5.196;2023-06-14T00:15:37;20.30;95.50
20735;DHT22;10528;52.124;5.196;2023-06-14T00:18:04;20.40;95.00
20735;DHT22;10528;52.124;5.196;2023-06-14T00:20:32;20.20;95.20
20735;DHT22;10528;52.124;5.196;2023-06-14T00:23:00;20.20;95.20
20735;DHT22;10528;52.124;5.196;2023-06-14T00:25:28;20.20;95.30
20735;DHT22;10528;52.124;5.196;2023-06-14T00:27:57;20.20;95.00
20735;DHT22;10528;52.124;5.196;2023-06-14T00:30:24;20.20;95.60
20735;DHT22;10528;52.124;5.196;2023-06-14T00:32:51;20.00;95.10
20735;DHT22;10528;52.124;5.196;2023-06-14T00:35:19;20.00;95.20
20735;DHT22;10528;52.124;5.196;2023-06-14T00:37:45;19.90;95.20
20735;DHT22;10528;52.124;5.196;2023-06-14T00:40:12;19.90;95.20
20735;DHT22;10528;52.124;5.196;2023-06-14T00:42:40;19.90;95.20
20735;DHT22;10528;52.124;5.196;2023-06-14T00:45:07;19.90;95.20
20735;DHT22;10528;52.124;5.196;2023-06-14T00:47:37;19.80;95.40
20735;DHT22;10528;52.124;5.196;2023-06-14T00:50:07;19.80;95.10
20735;DHT22;10528;52.124;5.196;2023-06-14T00:52:34;19.80;95.60
20735;DHT22;10528;52.124;5.196;2023-06-14T00:55:02;19.80;95.30
20735;DHT22;10528;52.124;5.196;2023-06-14T00:57:29;19.80;95.10
20735;DHT22;10528;52.124;5.196;2023-06-14T00:59:57;19.80;95.50
20735;DHT22;10528;52.124;5.196;2023-06-14T01:02:23;19.60;95.70
20735;DHT22;10528;52.124;5.196;2023-06-14T01:04:53;19.60;95.70
20735;DHT22;10528;52.124;5.196;2023-06-14T01:10:35;19.50;96.00
20735;DHT22;10528;52.124;5.196;2023-06-14T01:13:25;19.40;96.50
20735;DHT22;10528;52.124;5.196;2023-06-14T01:16:02;19.30;96.20
20735;DHT22;10528;52.124;5.196;2023-06-14T01:18:30;19.20;96.20
20735;DHT22;10528;52.124;5.196;2023-06-14T01:21:00;19.20;96.60
20735;DHT22;10528;52.124;5.196;2023-06-14T01:23:32;19.30;96.50
20735;DHT22;10528;52.124;5.196;2023-06-14T01:26:01;19.20;96.70
20735;DHT22;10528;52.124;5.196;2023-06-14T01:28:31;19.20;96.70
20735;DHT22;10528;52.124;5.196;2023-06-14T01:31:02;19.10;96.70
20735;DHT22;10528;52.124;5.196;2023-06-14T01:33:33;19.10;96.60
20735;DHT22;10528;52.124;5.196;2023-06-14T01:36:02;19.10;96.90
20735;DHT22;10528;52.124;5.196;2023-06-14T01:38:31;19.10;96.90
20735;DHT22;10528;52.124;5.196;2023-06-14T01:41:00;19.00;96.90
20735;DHT22;10528;52.124;5.196;2023-06-14T01:43:30;19.00;96.90
20735;DHT22;10528;52.124;5.196;2023-06-14T01:45:58;18.90;96.70
20735;DHT22;10528;52.124;5.196;2023-06-14T01:48:27;19.00;97.20
20735;DHT22;10528;52.124;5.196;2023-06-14T01:50:54;19.00;96.80
20735;DHT22;10528;52.124;5.196;2023-06-14T01:53:21;19.00;96.80
20735;DHT22;10528;52.124;5.196;2023-06-14T01:55:48;18.80;96.70
20735;DHT22;10528;52.124;5.196;2023-06-14T01:58:16;18.80;96.60
20735;DHT22;10528;52.124;5.196;2023-06-14T02:00:43;18.90;96.80
20735;DHT22;10528;52.124;5.196;2023-06-14T02:03:10;18.90;96.20
20735;DHT22;10528;52.124;5.196;2023-06-14T02:05:38;18.70;96.30
20735;DHT22;10528;52.124;5.196;2023-06-14T02:08:06;18.80;96.40
20735;DHT22;10528;52.124;5.196;2023-06-14T02:10:34;18.90;96.40
20735;DHT22;10528;52.124;5.196;2023-06-14T02:13:02;18.90;96.50
20735;DHT22;10528;52.124;5.196;2023-06-14T02:15:29;18.80;96.70
20735;DHT22;10528;52.124;5.196;2023-06-14T02:18:04;18.70;96.40
20735;DHT22;10528;52.124;5.196;2023-06-14T02:20:33;18.70;96.50
20735;DHT22;10528;52.124;5.196;2023-06-14T02:23:00;18.70;96.50
20735;DHT22;10528;52.124;5.196;2023-06-14T02:25:26;18.70;96.40
20735;DHT22;10528;52.124;5.196;2023-06-14T02:27:55;18.70;96.50
20735;DHT22;10528;52.124;5.196;2023-06-14T02:30:22;18.60;96.80
20735;DHT22;10528;52.124;5.196;2023-06-14T02:32:49;18.60;97.00
20735;DHT22;10528;52.124;5.196;2023-06-14T02:35:17;18.40;97.00
20735;DHT22;10528;52.124;5.196;2023-06-14T02:37:44;18.40;97.20
20735;DHT22;10528;52.124;5.196;2023-06-14T02:40:12;18.30;97.10
20735;DHT22;10528;52.124;5.196;2023-06-14T02:42:39;18.30;97.40
20735;DHT22;10528;52.124;5.196;2023-06-14T02:45:07;18.30;97.30
20735;DHT22;10528;52.124;5.196;2023-06-14T02:47:34;18.20;97.70
20735;DHT22;10528;52.124;5.196;2023-06-14T02:50:02;18.20;97.50
20735;DHT22;10528;52.124;5.196;2023-06-14T02:52:29;18.30;97.70
20735;DHT22;10528;52.124;5.196;2023-06-14T02:54:56;18.20;97.70
20735;DHT22;10528;52.124;5.196;2023-06-14T02:57:23;18.30;97.90
20735;DHT22;10528;52.124;5.196;2023-06-14T02:59:50;18.10;98.20
20735;DHT22;10528;52.124;5.196;2023-06-14T03:02:19;18.20;98.10
20735;DHT22;10528;52.124;5.196;2023-06-14T03:04:46;18.10;98.30
20735;DHT22;10528;52.124;5.196;2023-06-14T03:07:17;18.10;98.30
20735;DHT22;10528;52.124;5.196;2023-06-14T03:09:49;18.10;98.40
20735;DHT22;10528;52.124;5.196;2023-06-14T03:12:17;18.00;98.40
20735;DHT22;10528;52.124;5.196;2023-06-14T03:14:44;18.00;98.50
20735;DHT22;10528;52.124;5.196;2023-06-14T03:17:15;18.10;98.90
20735;DHT22;10528;52.124;5.196;2023-06-14T03:19:44;18.10;99.20
20735;DHT22;10528;52.124;5.196;2023-06-14T03:22:12;18.00;99.30
20735;DHT22;10528;52.124;5.196;2023-06-14T03:24:40;18.00;99.20
20735;DHT22;10528;52.124;5.196;2023-06-14T03:27:10;18.00;99.40
20735;DHT22;10528;52.124;5.196;2023-06-14T03:29:41;17.90;99.90
20735;DHT22;10528;52.124;5.196;2023-06-14T03:32:08;17.80;99.90
20735;DHT22;10528;52.124;5.196;2023-06-14T03:34:41;17.70;99.90
20735;DHT22;10528;52.124;5.196;2023-06-14T03:37:14;17.80;99.90
20735;DHT22;10528;52.124;5.196;2023-06-14T03:39:41;17.80;99.90
20735;DHT22;10528;52.124;5.196;2023-06-14T03:42:16;17.60;99.90
20735;DHT22;10528;52.124;5.196;2023-06-14T03:44:44;17.70;99.90
20735;DHT22;10528;52.124;5.196;2023-06-14T03:47:11;17.80;99.90
20735;DHT22;10528;52.124;5.196;2023-06-14T03:49:38;17.60;99.90
20735;DHT22;10528;52.124;5.196;2023-06-14T03:52:05;17.60;99.90
20735;DHT22;10528;52.124;5.196;2023-06-14T03:54:34;17.50;99.90
20735;DHT22;10528;52.124;5.196;2023-06-14T03:57:05;17.60;99.90
20735;DHT22;10528;52.124;5.196;2023-06-14T03:59:33;17.40;99.90
20735;DHT22;10528;52.124;5.196;2023-06-14T04:02:00;17.40;99.90
20735;DHT22;10528;52.124;5.196;2023-06-14T04:04:28;17.40;99.90
20735;DHT22;10528;52.124;5.196;2023-06-14T04:06:57;17.40;99.90
20735;DHT22;10528;52.124;5.196;2023-06-14T04:09:25;17.60;99.90
20735;DHT22;10528;52.124;5.196;2023-06-14T04:11:53;17.60;99.90
20735;DHT22;10528;52.124;5.196;2023-06-14T04:14:20;17.70;99.90
20735;DHT22;10528;52.124;5.196;2023-06-14T04:16:48;17.50;99.90
20735;DHT22;10528;52.124;5.196;2023-06-14T04:19:18;17.60;99.90
20735;DHT22;10528;52.124;5.196;2023-06-14T04:21:48;17.60;99.90
20735;DHT22;10528;52.124;5.196;2023-06-14T04:24:16;17.60;99.90
20735;DHT22;10528;52.124;5.196;2023-06-14T04:26:46;17.70;99.90
20735;DHT22;10528;52.124;5.196;2023-06-14T04:29:18;17.70;99.90
20735;DHT22;10528;52.124;5.196;2023-06-14T04:31:54;17.60;99.90
20735;DHT22;10528;52.124;5.196;2023-06-14T04:34:23;17.80;99.90
20735;DHT22;10528;52.124;5.196;2023-06-14T04:36:53;17.80;99.90
20735;DHT22;10528;52.124;5.196;2023-06-14T04:39:28;17.90;99.90
20735;DHT22;10528;52.124;5.196;2023-06-14T04:41:55;17.90;99.90
20735;DHT22;10528;52.124;5.196;2023-06-14T04:44:24;17.90;99.90
20735;DHT22;10528;52.124;5.196;2023-06-14T04:47:00;17.90;99.90
20735;DHT22;10528;52.124;5.196;2023-06-14T04:49:27;18.00;99.90
20735;DHT22;10528;52.124;5.196;2023-06-14T04:51:57;18.20;99.90
20735;DHT22;10528;52.124;5.196;2023-06-14T04:54:28;18.60;99.90
20735;DHT22;10528;52.124;5.196;2023-06-14T04:56:58;19.60;99.90
20735;DHT22;10528;52.124;5.196;2023-06-14T04:59:26;20.30;99.40
20735;DHT22;10528;52.124;5.196;2023-06-14T05:01:53;20.90;98.40
20735;DHT22;10528;52.124;5.196;2023-06-14T05:04:22;21.40;97.20
20735;DHT22;10528;52.124;5.196;2023-06-14T05:06:49;21.50;96.50
20735;DHT22;10528;52.124;5.196;2023-06-14T05:09:16;21.90;96.20
20735;DHT22;10528;52.124;5.196;2023-06-14T05:11:44;22.50;95.40
20735;DHT22;10528;52.124;5.196;2023-06-14T05:14:12;22.50;95.00
20735;DHT22;10528;52.124;5.196;2023-06-14T05:16:39;22.80;94.50
20735;DHT22;10528;52.124;5.196;2023-06-14T05:19:07;23.00;94.20
20735;DHT22;10528;52.124;5.196;2023-06-14T05:21:34;22.90;93.50
20735;DHT22;10528;52.124;5.196;2023-06-14T05:24:07;23.30;93.50
20735;DHT22;10528;52.124;5.196;2023-06-14T05:26:35;23.10;93.10
20735;DHT22;10528;52.124;5.196;2023-06-14T05:29:02;22.70;93.40
20735;DHT22;10528;52.124;5.196;2023-06-14T05:31:30;22.70;93.40
20735;DHT22;10528;52.124;5.196;2023-06-14T05:33:57;22.50;93.20
20735;DHT22;10528;52.124;5.196;2023-06-14T05:36:24;23.20;93.10
20735;DHT22;10528;52.124;5.196;2023-06-14T05:38:52;23.20;93.20
20735;DHT22;10528;52.124;5.196;2023-06-14T05:41:28;23.70;92.80
20735;DHT22;10528;52.124;5.196;2023-06-14T05:43:56;23.90;92.30
20735;DHT22;10528;52.124;5.196;2023-06-14T05:46:23;23.90;92.20
20735;DHT22;10528;52.124;5.196;2023-06-14T05:48:52;24.50;91.90
20735;DHT22;10528;52.124;5.196;2023-06-14T05:51:19;24.50;91.40
20735;DHT22;10528;52.124;5.196;2023-06-14T05:53:50;25.10;91.40
20735;DHT22;10528;52.124;5.196;2023-06-14T05:56:18;25.40;90.90
20735;DHT22;10528;52.124;5.196;2023-06-14T05:58:46;25.30;90.60
20735;DHT22;10528;52.124;5.196;2023-06-14T06:01:13;25.40;91.00
20735;DHT22;10528;52.124;5.196;2023-06-14T06:03:41;25.40;90.50
20735;DHT22;10528;52.124;5.196;2023-06-14T06:06:13;25.10;90.00
20735;DHT22;10528;52.124;5.196;2023-06-14T06:08:40;25.20;89.00
20735;DHT22;10528;52.124;5.196;2023-06-14T06:11:07;25.60;89.70
20735;DHT22;10528;52.124;5.196;2023-06-14T06:13:35;25.80;88.40
20735;DHT22;10528;52.124;5.196;2023-06-14T06:16:03;25.80;88.10
20735;DHT22;10528;52.124;5.196;2023-06-14T06:18:30;25.00;87.60
20735;DHT22;10528;52.124;5.196;2023-06-14T06:20:57;25.10;88.60
20735;DHT22;10528;52.124;5.196;2023-06-14T06:23:24;25.60;88.50
20735;DHT22;10528;52.124;5.196;2023-06-14T06:25:51;26.10;86.90
20735;DHT22;10528;52.124;5.196;2023-06-14T06:28:18;25.70;86.50
20735;DHT22;10528;52.124;5.196;2023-06-14T06:30:45;25.80;87.70
20735;DHT22;10528;52.124;5.196;2023-06-14T06:33:12;24.50;87.10
20735;DHT22;10528;52.124;5.196;2023-06-14T06:35:40;25.00;88.30
20735;DHT22;10528;52.124;5.196;2023-06-14T06:38:07;25.30;87.60
20735;DHT22;10528;52.124;5.196;2023-06-14T06:40:36;25.00;87.50
20735;DHT22;10528;52.124;5.196;2023-06-14T06:43:03;25.70;88.00
20735;DHT22;10528;52.124;5.196;2023-06-14T06:45:37;26.20;85.10
20735;DHT22;10528;52.124;5.196;2023-06-14T06:48:04;26.30;84.70
20735;DHT22;10528;52.124;5.196;2023-06-14T06:50:32;26.70;85.20
20735;DHT22;10528;52.124;5.196;2023-06-14T06:52:59;26.60;85.00
20735;DHT22;10528;52.124;5.196;2023-06-14T06:55:26;27.20;83.50
20735;DHT22;10528;52.124;5.196;2023-06-14T06:57:53;26.80;82.90
20735;DHT22;10528;52.124;5.196;2023-06-14T07:00:21;26.90;83.00
20735;DHT22;10528;52.124;5.196;2023-06-14T07:02:48;28.20;82.00
20735;DHT22;10528;52.124;5.196;2023-06-14T07:05:15;27.50;80.90
20735;DHT22;10528;52.124;5.196;2023-06-14T07:07:42;27.60;81.10
20735;DHT22;10528;52.124;5.196;2023-06-14T07:10:09;26.10;82.20
20735;DHT22;10528;52.124;5.196;2023-06-14T07:12:37;27.10;81.50
20735;DHT22;10528;52.124;5.196;2023-06-14T07:15:09;27.20;80.80
20735;DHT22;10528;52.124;5.196;2023-06-14T07:17:36;26.30;82.20
20735;DHT22;10528;52.124;5.196;2023-06-14T07:20:04;27.20;81.60
20735;DHT22;10528;52.124;5.196;2023-06-14T07:22:34;27.20;80.60
20735;DHT22;10528;52.124;5.196;2023-06-14T07:25:01;26.80;81.30
20735;DHT22;10528;52.124;5.196;2023-06-14T07:27:29;27.50;81.00
20735;DHT22;10528;52.124;5.196;2023-06-14T07:29:56;27.60;80.20
20735;DHT22;10528;52.124;5.196;2023-06-14T07:32:23;28.00;79.20
20735;DHT22;10528;52.124;5.196;2023-06-14T07:34:50;28.30;79.10
20735;DHT22;10528;52.124;5.196;2023-06-14T07:37:17;28.30;78.40
20735;DHT22;10528;52.124;5.196;2023-06-14T07:39:44;27.80;79.30
20735;DHT22;10528;52.124;5.196;2023-06-14T07:42:11;27.80;77.90
20735;DHT22;10528;52.124;5.196;2023-06-14T07:44:38;27.90;78.60
20735;DHT22;10528;52.124;5.196;2023-06-14T07:47:05;27.70;77.60
20735;DHT22;10528;52.124;5.196;2023-06-14T07:49:32;27.50;78.80
20735;DHT22;10528;52.124;5.196;2023-06-14T07:51:59;27.50;77.80
20735;DHT22;10528;52.124;5.196;2023-06-14T07:54:26;27.20;79.10
20735;DHT22;10528;52.124;5.196;2023-06-14T07:56:54;27.70;78.90
20735;DHT22;10528;52.124;5.196;2023-06-14T07:59:22;28.30;78.30
20735;DHT22;10528;52.124;5.196;2023-06-14T08:01:49;29.60;76.40
20735;DHT22;10528;52.124;5.196;2023-06-14T08:04:16;28.50;75.90
20735;DHT22;10528;52.124;5.196;2023-06-14T08:06:43;28.30;77.30
20735;DHT22;10528;52.124;5.196;2023-06-14T08:09:13;29.70;75.80
20735;DHT22;10528;52.124;5.196;2023-06-14T08:11:40;29.50;75.40
20735;DHT22;10528;52.124;5.196;2023-06-14T08:14:07;29.40;75.80
20735;DHT22;10528;52.124;5.196;2023-06-14T08:16:35;30.60;75.90
20735;DHT22;10528;52.124;5.196;2023-06-14T08:19:02;29.40;73.80
20735;DHT22;10528;52.124;5.196;2023-06-14T08:21:28;29.10;74.00
20735;DHT22;10528;52.124;5.196;2023-06-14T08:23:58;28.50;75.20
20735;DHT22;10528;52.124;5.196;2023-06-14T08:26:25;28.50;76.00
20735;DHT22;10528;52.124;5.196;2023-06-14T08:28:58;28.90;75.50
20735;DHT22;10528;52.124;5.196;2023-06-14T08:31:25;29.00;76.00
20735;DHT22;10528;52.124;5.196;2023-06-14T08:33:52;29.60;74.80
20735;DHT22;10528;52.124;5.196;2023-06-14T08:36:19;29.10;73.50
20735;DHT22;10528;52.124;5.196;2023-06-14T08:38:46;28.50;74.20
20735;DHT22;10528;52.124;5.196;2023-06-14T08:41:20;28.70;74.80
20735;DHT22;10528;52.124;5.196;2023-06-14T08:43:52;28.10;73.80
20735;DHT22;10528;52.124;5.196;2023-06-14T08:46:19;27.90;74.70
20735;DHT22;10528;52.124;5.196;2023-06-14T08:48:48;27.20;74.20
20735;DHT22;10528;52.124;5.196;2023-06-14T08:51:19;27.20;73.60
20735;DHT22;10528;52.124;5.196;2023-06-14T08:53:57;26.80;74.10
20735;DHT22;10528;52.124;5.196;2023-06-14T08:56:28;27.60;74.30
20735;DHT22;10528;52.124;5.196;2023-06-14T08:58:59;27.80;74.30
20735;DHT22;10528;52.124;5.196;2023-06-14T09:01:34;27.80;74.00
20735;DHT22;10528;52.124;5.196;2023-06-14T09:04:01;27.50;72.00
20735;DHT22;10528;52.124;5.196;2023-06-14T09:06:29;27.40;71.50
20735;DHT22;10528;52.124;5.196;2023-06-14T09:08:56;27.40;72.70
20735;DHT22;10528;52.124;5.196;2023-06-14T09:11:24;27.80;72.20
20735;DHT22;10528;52.124;5.196;2023-06-14T09:13:52;28.00;71.70
20735;DHT22;10528;52.124;5.196;2023-06-14T09:16:19;27.90;71.60
20735;DHT22;10528;52.124;5.196;2023-06-14T09:18:47;26.90;69.90
20735;DHT22;10528;52.124;5.196;2023-06-14T09:21:16;26.90;70.90
20735;DHT22;10528;52.124;5.196;2023-06-14T09:23:45;27.60;73.40
20735;DHT22;10528;52.124;5.196;2023-06-14T09:26:15;27.40;73.50
20735;DHT22;10528;52.124;5.196;2023-06-14T09:28:50;28.20;71.90
20735;DHT22;10528;52.124;5.196;2023-06-14T09:31:21;27.30;70.50
20735;DHT22;10528;52.124;5.196;2023-06-14T09:33:49;27.60;72.20
20735;DHT22;10528;52.124;5.196;2023-06-14T09:36:20;27.60;72.00
20735;DHT22;10528;52.124;5.196;2023-06-14T09:38:53;27.70;71.40
20735;DHT22;10528;52.124;5.196;2023-06-14T09:41:40;27.80;71.00
20735;DHT22;10528;52.124;5.196;2023-06-14T09:44:10;28.10;71.50
20735;DHT22;10528;52.124;5.196;2023-06-14T09:46:48;27.90;70.00
20735;DHT22;10528;52.124;5.196;2023-06-14T09:49:15;27.90;72.00
20735;DHT22;10528;52.124;5.196;2023-06-14T09:51:44;27.60;70.90
20735;DHT22;10528;52.124;5.196;2023-06-14T09:54:16;28.10;71.10
20735;DHT22;10528;52.124;5.196;2023-06-14T09:56:47;28.10;72.20
20735;DHT22;10528;52.124;5.196;2023-06-14T09:59:19;27.90;70.60
20735;DHT22;10528;52.124;5.196;2023-06-14T10:01:57;27.60;67.90
20735;DHT22;10528;52.124;5.196;2023-06-14T10:04:27;27.10;68.30
20735;DHT22;10528;52.124;5.196;2023-06-14T10:06:57;27.20;71.10
20735;DHT22;10528;52.124;5.196;2023-06-14T10:09:26;27.80;69.40
20735;DHT22;10528;52.124;5.196;2023-06-14T10:11:57;27.50;68.10
20735;DHT22;10528;52.124;5.196;2023-06-14T10:14:24;28.00;68.10
20735;DHT22;10528;52.124;5.196;2023-06-14T10:17:08;27.10;68.80
20735;DHT22;10528;52.124;5.196;2023-06-14T10:19:50;27.00;68.70
20735;DHT22;10528;52.124;5.196;2023-06-14T10:23:08;27.30;71.00
20735;DHT22;10528;52.124;5.196;2023-06-14T10:25:38;27.70;69.50
20735;DHT22;10528;52.124;5.196;2023-06-14T10:28:16;27.60;69.40
20735;DHT22;10528;52.124;5.196;2023-06-14T10:31:10;27.60;69.40
20735;DHT22;10528;52.124;5.196;2023-06-14T10:33:49;27.50;68.40
20735;DHT22;10528;52.124;5.196;2023-06-14T10:36:26;27.50;70.30
20735;DHT22;10528;52.124;5.196;2023-06-14T10:39:07;27.00;67.60
20735;DHT22;10528;52.124;5.196;2023-06-14T10:41:38;27.50;68.80
20735;DHT22;10528;52.124;5.196;2023-06-14T10:46:48;27.90;68.70
20735;DHT22;10528;52.124;5.196;2023-06-14T10:49:16;27.50;68.70
20735;DHT22;10528;52.124;5.196;2023-06-14T10:51:50;27.70;68.90
20735;DHT22;10528;52.124;5.196;2023-06-14T10:54:20;27.60;68.90
20735;DHT22;10528;52.124;5.196;2023-06-14T10:56:50;27.60;69.60
20735;DHT22;10528;52.124;5.196;2023-06-14T10:59:19;27.70;69.80
20735;DHT22;10528;52.124;5.196;2023-06-14T11:02:20;27.80;69.70
20735;DHT22;10528;52.124;5.196;2023-06-14T11:05:25;28.20;70.60
20735;DHT22;10528;52.124;5.196;2023-06-14T11:10:57;28.00;70.40
20735;DHT22;10528;52.124;5.196;2023-06-14T11:13:26;28.00;69.10
20735;DHT22;10528;52.124;5.196;2023-06-14T11:15:56;28.00;68.80
20735;DHT22;10528;52.124;5.196;2023-06-14T11:18:24;27.60;68.50
20735;DHT22;10528;52.124;5.196;2023-06-14T11:20:51;27.60;68.80
20735;DHT22;10528;52.124;5.196;2023-06-14T11:23:18;27.60;68.50
20735;DHT22;10528;52.124;5.196;2023-06-14T11:25:52;28.00;70.20
20735;DHT22;10528;52.124;5.196;2023-06-14T11:28:19;28.10;68.20
20735;DHT22;10528;52.124;5.196;2023-06-14T11:30:49;28.10;67.70
20735;DHT22;10528;52.124;5.196;2023-06-14T11:33:26;27.60;67.70
20735;DHT22;10528;52.124;5.196;2023-06-14T11:35:53;27.70;68.50
20735;DHT22;10528;52.124;5.196;2023-06-14T11:38:20;27.50;68.20
20735;DHT22;10528;52.124;5.196;2023-06-14T11:40:48;27.10;68.20
20735;DHT22;10528;52.124;5.196;2023-06-14T11:43:14;27.10;69.80
20735;DHT22;10528;52.124;5.196;2023-06-14T11:45:41;27.20;69.30
20735;DHT22;10528;52.124;5.196;2023-06-14T11:48:12;27.20;67.30
20735;DHT22;10528;52.124;5.196;2023-06-14T11:50:39;27.30;69.40
20735;DHT22;10528;52.124;5.196;2023-06-14T11:53:06;27.40;67.90
20735;DHT22;10528;52.124;5.196;2023-06-14T11:55:37;27.10;70.00
20735;DHT22;10528;52.124;5.196;2023-06-14T11:58:06;27.30;70.00
20735;DHT22;10528;52.124;5.196;2023-06-14T12:00:35;27.40;70.40
20735;DHT22;10528;52.124;5.196;2023-06-14T12:03:03;27.80;71.30
20735;DHT22;10528;52.124;5.196;2023-06-14T12:05:32;27.60;69.60
20735;DHT22;10528;52.124;5.196;2023-06-14T12:08:03;27.60;69.40
20735;DHT22;10528;52.124;5.196;2023-06-14T12:10:40;27.50;67.80
20735;DHT22;10528;52.124;5.196;2023-06-14T12:13:10;28.00;69.90
20735;DHT22;10528;52.124;5.196;2023-06-14T12:15:37;27.60;70.90
20735;DHT22;10528;52.124;5.196;2023-06-14T12:18:07;28.00;70.40
20735;DHT22;10528;52.124;5.196;2023-06-14T12:20:34;27.80;68.50
20735;DHT22;10528;52.124;5.196;2023-06-14T12:23:03;27.50;68.80
20735;DHT22;10528;52.124;5.196;2023-06-14T12:25:35;27.40;69.90
20735;DHT22;10528;52.124;5.196;2023-06-14T12:28:07;27.60;68.60
20735;DHT22;10528;52.124;5.196;2023-06-14T12:30:36;27.90;69.70
20735;DHT22;10528;52.124;5.196;2023-06-14T12:33:04;27.50;70.00
20735;DHT22;10528;52.124;5.196;2023-06-14T12:35:33;27.90;69.40
20735;DHT22;10528;52.124;5.196;2023-06-14T12:38:00;27.30;68.20
20735;DHT22;10528;52.124;5.196;2023-06-14T12:40:27;27.20;68.60
20735;DHT22;10528;52.124;5.196;2023-06-14T12:42:53;27.20;69.70
20735;DHT22;10528;52.124;5.196;2023-06-14T12:45:20;27.00;70.70
20735;DHT22;10528;52.124;5.196;2023-06-14T12:47:47;27.30;71.50
20735;DHT22;10528;52.124;5.196;2023-06-14T12:50:14;27.40;70.30
20735;DHT22;10528;52.124;5.196;2023-06-14T12:52:42;27.40;71.10
20735;DHT22;10528;52.124;5.196;2023-06-14T12:55:09;27.10;70.80
20735;DHT22;10528;52.124;5.196;2023-06-14T12:57:35;26.80;71.80
20735;DHT22;10528;52.124;5.196;2023-06-14T13:00:05;26.90;71.90
20735;DHT22;10528;52.124;5.196;2023-06-14T13:02:34;27.20;71.30
20735;DHT22;10528;52.124;5.196;2023-06-14T13:05:01;27.50;71.70
20735;DHT22;10528;52.124;5.196;2023-06-14T13:07:30;27.20;71.70
20735;DHT22;10528;52.124;5.196;2023-06-14T13:09:57;27.40;72.20
20735;DHT22;10528;52.124;5.196;2023-06-14T13:12:24;27.20;72.60
20735;DHT22;10528;52.124;5.196;2023-06-14T13:14:51;27.20;72.50
20735;DHT22;10528;52.124;5.196;2023-06-14T13:17:18;27.00;72.30
20735;DHT22;10528;52.124;5.196;2023-06-14T13:19:45;27.10;72.50
20735;DHT22;10528;52.124;5.196;2023-06-14T13:22:11;27.00;72.70
20735;DHT22;10528;52.124;5.196;2023-06-14T13:24:38;26.90;73.70
20735;DHT22;10528;52.124;5.196;2023-06-14T13:27:06;27.00;72.80
20735;DHT22;10528;52.124;5.196;2023-06-14T13:29:33;26.90;72.40
20735;DHT22;10528;52.124;5.196;2023-06-14T13:32:03;26.70;72.20
20735;DHT22;10528;52.124;5.196;2023-06-14T13:34:30;27.10;73.70
20735;DHT22;10528;52.124;5.196;2023-06-14T13:36:57;26.90;71.80
20735;DHT22;10528;52.124;5.196;2023-06-14T13:39:26;26.40;70.40
20735;DHT22;10528;52.124;5.196;2023-06-14T13:41:53;26.60;70.90
20735;DHT22;10528;52.124;5.196;2023-06-14T13:44:19;26.80;70.70
20735;DHT22;10528;52.124;5.196;2023-06-14T13:46:48;26.70;68.50
20735;DHT22;10528;52.124;5.196;2023-06-14T13:49:15;27.10;68.10
20735;DHT22;10528;52.124;5.196;2023-06-14T13:51:42;26.60;67.50
20735;DHT22;10528;52.124;5.196;2023-06-14T13:54:09;26.90;69.20
20735;DHT22;10528;52.124;5.196;2023-06-14T13:56:38;26.90;68.80
20735;DHT22;10528;52.124;5.196;2023-06-14T13:59:05;26.80;69.70
20735;DHT22;10528;52.124;5.196;2023-06-14T14:01:32;26.90;69.40
20735;DHT22;10528;52.124;5.196;2023-06-14T14:03:59;27.00;68.70
20735;DHT22;10528;52.124;5.196;2023-06-14T14:06:27;26.60;69.50
20735;DHT22;10528;52.124;5.196;2023-06-14T14:08:54;26.30;69.60
20735;DHT22;10528;52.124;5.196;2023-06-14T14:11:21;26.30;70.20
20735;DHT22;10528;52.124;5.196;2023-06-14T14:13:47;26.60;70.30
20735;DHT22;10528;52.124;5.196;2023-06-14T14:16:15;26.60;69.90
20735;DHT22;10528;52.124;5.196;2023-06-14T14:18:42;26.60;70.90
20735;DHT22;10528;52.124;5.196;2023-06-14T14:21:09;26.70;71.40
20735;DHT22;10528;52.124;5.196;2023-06-14T14:23:36;26.70;71.90
20735;DHT22;10528;52.124;5.196;2023-06-14T14:26:07;26.60;71.90
20735;DHT22;10528;52.124;5.196;2023-06-14T14:28:34;26.70;71.80
20735;DHT22;10528;52.124;5.196;2023-06-14T14:31:01;26.60;72.80
20735;DHT22;10528;52.124;5.196;2023-06-14T14:33:28;26.30;72.70
20735;DHT22;10528;52.124;5.196;2023-06-14T14:35:55;26.70;73.30
20735;DHT22;10528;52.124;5.196;2023-06-14T14:38:22;26.40;72.40
20735;DHT22;10528;52.124;5.196;2023-06-14T14:40:49;26.10;71.10
20735;DHT22;10528;52.124;5.196;2023-06-14T14:43:17;26.40;71.70
20735;DHT22;10528;52.124;5.196;2023-06-14T14:45:44;26.20;71.40
20735;DHT22;10528;52.124;5.196;2023-06-14T14:48:11;26.50;71.50
20735;DHT22;10528;52.124;5.196;2023-06-14T14:50:38;26.50;70.60
20735;DHT22;10528;52.124;5.196;2023-06-14T14:53:06;26.30;71.00
20735;DHT22;10528;52.124;5.196;2023-06-14T14:55:33;26.20;70.80
20735;DHT22;10528;52.124;5.196;2023-06-14T14:58:02;26.00;71.50
20735;DHT22;10528;52.124;5.196;2023-06-14T15:00:29;26.00;70.90
20735;DHT22;10528;52.124;5.196;2023-06-14T15:02:56;26.10;72.00
20735;DHT22;10528;52.124;5.196;2023-06-14T15:05:23;26.30;72.30
20735;DHT22;10528;52.124;5.196;2023-06-14T15:07:50;26.40;71.80
20735;DHT22;10528;52.124;5.196;2023-06-14T15:10:17;26.60;71.90
20735;DHT22;10528;52.124;5.196;2023-06-14T15:12:44;26.40;70.70
20735;DHT22;10528;52.124;5.196;2023-06-14T15:15:11;26.30;71.70
20735;DHT22;10528;52.124;5.196;2023-06-14T15:17:38;26.30;71.40
20735;DHT22;10528;52.124;5.196;2023-06-14T15:20:06;26.40;72.00
20735;DHT22;10528;52.124;5.196;2023-06-14T15:22:33;26.40;71.30
20735;DHT22;10528;52.124;5.196;2023-06-14T15:25:00;26.20;69.50
20735;DHT22;10528;52.124;5.196;2023-06-14T15:27:27;26.20;70.60
20735;DHT22;10528;52.124;5.196;2023-06-14T15:29:54;26.30;71.00
20735;DHT22;10528;52.124;5.196;2023-06-14T15:32:21;26.30;71.80
20735;DHT22;10528;52.124;5.196;2023-06-14T15:34:48;26.30;71.80
20735;DHT22;10528;52.124;5.196;2023-06-14T15:37:15;26.30;71.50
20735;DHT22;10528;52.124;5.196;2023-06-14T15:39:42;26.50;72.10
20735;DHT22;10528;52.124;5.196;2023-06-14T15:42:09;26.20;70.40
20735;DHT22;10528;52.124;5.196;2023-06-14T15:44:36;26.20;71.30
20735;DHT22;10528;52.124;5.196;2023-06-14T15:47:03;26.30;71.50
20735;DHT22;10528;52.124;5.196;2023-06-14T15:49:30;26.30;71.70